Time;durP1;ratioP1;P1;durP2;ratioP2;P2;SDS_P1;SDS_P2;PMS_P1;PMS_P2;Temp;Humidity;BMP_temperature;BMP_pressure;BME280_temperature;BME280_humidity;BME280_pressure;Samples;Min_cycle;Max_cycle;Signal;HPM_P1;HPM_P2
2021/01/30 00:01:51;;;;;;;0.70;0.60;;;8.00;99.90;;;8.55;100.00;-20914.91;5071912;28;20426;-66
2021/01/30 00:04:19;;;;;;;0.60;0.50;;;8.00;99.90;;;8.53;100.00;-20914.34;5065740;28;20428;-64
2021/01/30 00:06:50;;;;;;;0.60;0.60;;;8.00;99.90;;;8.55;100.00;-20914.78;5057753;28;20510;-65
2021/01/30 00:09:18;;;;;;;0.60;0.60;;;8.10;99.90;;;8.56;100.00;-20915.19;5060941;28;20447;-66
2021/01/30 00:11:49;;;;;;;0.60;0.60;;;8.00;99.90;;;8.56;100.00;-20915.19;5053671;28;20462;-67
2021/01/30 00:14:20;;;;;;;0.70;0.60;;;8.00;99.90;;;8.48;100.00;-20912.97;5058450;28;20547;-66
2021/01/30 00:16:47;;;;;;;0.60;0.60;;;8.00;99.90;;;8.51;100.00;-20913.81;5068773;28;20497;-66
2021/01/30 00:19:15;;;;;;;0.60;0.60;;;8.00;99.90;;;8.45;100.00;-20912.13;5069285;28;20451;-67
2021/01/30 00:21:48;;;;;;;0.70;0.70;;;7.90;99.90;;;8.34;100.00;-20909.22;5072790;28;20431;-66
2021/01/30 00:24:15;;;;;;;0.60;0.60;;;7.80;99.90;;;8.31;100.00;-20908.38;5059126;28;21008;-66
2021/01/30 00:26:42;;;;;;;0.60;0.60;;;7.80;99.90;;;8.31;100.00;-20908.38;5052640;28;20424;-66
2021/01/30 00:29:13;;;;;;;0.67;0.67;;;7.70;99.90;;;8.29;100.00;-20907.69;5054073;28;20508;-66
2021/01/30 00:31:40;;;;;;;0.60;0.60;;;7.70;99.90;;;8.23;100.00;-20906.31;5052444;28;20421;-67
2021/01/30 00:34:07;;;;;;;0.60;0.60;;;7.70;99.90;;;8.22;100.00;-20905.91;5052152;28;21072;-67
2021/01/30 00:36:34;;;;;;;0.80;0.80;;;7.70;99.90;;;8.15;100.00;-20903.94;5052254;28;20435;-66
2021/01/30 00:39:01;;;;;;;0.60;0.60;;;7.70;99.90;;;8.15;100.00;-20904.09;5052667;28;20498;-67
2021/01/30 00:41:28;;;;;;;0.60;0.60;;;7.70;99.90;;;8.13;100.00;-20903.53;5053787;28;20445;-66
2021/01/30 00:43:59;;;;;;;1.23;1.00;;;7.70;99.90;;;8.08;100.00;-20902.00;5062002;28;20812;-66
2021/01/30 00:46:27;;;;;;;0.67;0.60;;;7.60;99.90;;;8.07;100.00;-20901.88;5054085;28;20811;-66
2021/01/30 00:48:54;;;;;;;0.60;0.57;;;7.60;99.90;;;8.02;100.00;-20900.47;5057914;28;20472;-67
2021/01/30 00:51:22;;;;;;;0.60;0.50;;;7.50;99.90;;;7.94;100.00;-20898.41;5067802;28;20444;-66
2021/01/30 00:53:53;;;;;;;0.60;0.60;;;7.50;99.90;;;7.94;100.00;-20898.41;5057971;28;20440;-66
2021/01/30 00:56:20;;;;;;;0.60;0.50;;;7.50;99.90;;;7.98;100.00;-20899.50;5068301;28;20447;-66
2021/01/30 00:58:47;;;;;;;1.63;1.10;;;7.50;99.90;;;7.93;100.00;-20897.97;5064571;28;20484;-66
2021/01/30 01:01:14;;;;;;;0.70;0.60;;;7.40;99.90;;;7.93;100.00;-20897.97;5050733;28;20926;-66
2021/01/30 01:03:44;;;;;;;0.60;0.60;;;7.40;99.90;;;7.83;100.00;-20895.22;5056070;28;20448;-66
2021/01/30 01:06:11;;;;;;;0.70;0.60;;;7.40;99.90;;;7.90;100.00;-20897.16;5068624;28;20427;-66
2021/01/30 01:08:38;;;;;;;0.60;0.60;;;7.40;99.90;;;7.84;100.00;-20895.63;5062382;28;20479;-66
2021/01/30 01:11:04;;;;;;;0.80;0.80;;;7.40;99.90;;;7.85;100.00;-20895.91;5052592;28;20447;-68
2021/01/30 01:13:31;;;;;;;0.70;0.60;;;7.40;99.90;;;7.85;100.00;-20895.91;5062767;28;20515;-66
2021/01/30 01:15:58;;;;;;;1.23;1.13;;;7.40;99.90;;;7.96;100.00;-20898.97;5070746;28;20530;-66
2021/01/30 01:18:30;;;;;;;0.60;0.60;;;7.40;99.90;;;7.79;100.00;-20894.25;5071550;28;20568;-66
2021/01/30 01:20:58;;;;;;;0.60;0.60;;;7.40;99.90;;;7.85;100.00;-20895.91;5068811;28;20545;-66
2021/01/30 01:23:25;;;;;;;0.60;0.60;;;7.30;99.90;;;7.91;100.00;-20897.44;5071385;28;20467;-66
2021/01/30 01:25:52;;;;;;;0.60;0.60;;;7.30;99.90;;;7.97;100.00;-20899.22;5059621;28;20991;-66
2021/01/30 01:28:19;;;;;;;0.70;0.60;;;7.30;99.90;;;7.80;100.00;-20894.50;5067090;28;21015;-67
2021/01/30 01:30:46;;;;;;;0.60;0.60;;;7.30;99.90;;;7.89;100.00;-20896.88;5074084;28;20431;-66
2021/01/30 01:33:14;;;;;;;0.67;0.60;;;7.20;99.90;;;7.70;100.00;-20891.88;5075499;28;20441;-66
2021/01/30 01:35:41;;;;;;;0.60;0.60;;;7.20;99.90;;;7.71;100.00;-20892.16;5074105;28;20437;-66
2021/01/30 01:38:09;;;;;;;0.60;0.60;;;7.20;99.90;;;7.70;100.00;-20891.88;5073571;28;20459;-66
2021/01/30 01:40:39;;;;;;;0.70;0.67;;;7.20;99.90;;;7.78;100.00;-20893.81;5069040;28;20446;-66
2021/01/30 01:43:12;;;;;;;0.60;0.60;;;7.20;99.90;;;7.81;100.00;-20894.66;5075725;28;20436;-66
2021/01/30 01:45:40;;;;;;;0.70;0.60;;;7.20;99.90;;;7.65;100.00;-20890.34;5074125;28;20469;-66
2021/01/30 01:48:17;;;;;;;0.60;0.50;;;7.20;99.90;;;7.69;100.00;-20891.59;5056080;28;20430;-66
2021/01/30 01:50:47;;;;;;;0.60;0.60;;;7.10;99.90;;;7.77;100.00;-20893.53;5056601;28;20437;-67
2021/01/30 01:53:19;;;;;;;0.60;0.50;;;7.10;99.90;;;7.77;100.00;-20893.69;5068215;28;20957;-66
2021/01/30 01:55:53;;;;;;;0.60;0.60;;;7.10;99.90;;;7.70;100.00;-20891.75;5062507;28;20787;-66
2021/01/30 01:58:22;;;;;;;0.60;0.60;;;7.00;99.90;;;7.58;100.00;-20888.53;5067631;28;20455;-66
2021/01/30 02:00:51;;;;;;;0.60;0.60;;;7.00;99.90;;;7.49;100.00;-20886.03;5063393;28;20465;-66
2021/01/30 02:03:24;;;;;;;0.70;0.70;;;6.90;99.90;;;7.37;100.00;-20882.72;5065952;28;20441;-66
2021/01/30 02:05:51;;;;;;;0.70;0.60;;;6.90;99.90;;;7.50;100.00;-20886.31;5073430;28;21006;-64
2021/01/30 02:08:23;;;;;;;0.60;0.60;;;6.90;99.90;;;7.42;100.00;-20884.09;5073108;28;20448;-64
2021/01/30 02:10:51;;;;;;;0.60;0.60;;;6.90;99.90;;;7.46;100.00;-20885.22;5058983;28;20449;-65
2021/01/30 02:13:23;;;;;;;0.60;0.60;;;6.90;99.90;;;7.45;100.00;-20884.94;5054136;28;20516;-64
2021/01/30 02:16:02;;;;;;;0.80;0.70;;;6.80;99.90;;;7.36;100.00;-20882.56;5070628;28;20432;-64
2021/01/30 02:18:52;;;;;;;0.60;0.60;;;6.80;99.90;;;7.35;100.00;-20882.16;5070462;28;20455;-65
2021/01/30 02:22:04;;;;;;;0.60;0.60;;;6.70;99.90;;;7.23;100.00;-20878.97;5054843;28;20527;-67
2021/01/30 02:25:25;;;;;;;0.60;0.60;;;6.50;99.90;;;6.93;100.00;-20870.91;5048120;28;20932;-64
2021/01/30 02:28:26;;;;;;;0.60;0.60;;;6.40;99.90;;;6.78;100.00;-20866.88;5057288;28;20428;-66
2021/01/30 02:31:42;;;;;;;0.70;0.60;;;6.30;99.90;;;6.83;100.00;-20868.00;5070458;28;20978;-65
2021/01/30 02:34:46;;;;;;;0.60;0.50;;;6.30;99.90;;;6.77;100.00;-20866.47;5073756;28;20437;-65
2021/01/30 02:37:21;;;;;;;0.60;0.60;;;6.30;99.90;;;6.70;100.00;-20864.66;5073245;28;20536;-66
2021/01/30 02:39:53;;;;;;;0.70;0.60;;;6.20;99.90;;;6.68;100.00;-20863.97;5074317;28;20408;-66
2021/01/30 02:42:26;;;;;;;0.60;0.60;;;6.20;99.90;;;6.48;100.00;-20858.69;5069293;28;20978;-66
2021/01/30 02:45:00;;;;;;;0.60;0.50;;;6.00;99.90;;;6.01;100.00;-20845.75;5056188;28;20958;-65
2021/01/30 02:47:33;;;;;;;0.70;0.63;;;5.60;99.90;;;6.08;100.00;-20847.56;5055005;28;20890;-66
2021/01/30 02:50:09;;;;;;;0.60;0.60;;;5.50;99.90;;;5.86;100.00;-20841.56;5055325;28;20515;-66
2021/01/30 02:52:39;;;;;;;0.93;0.83;;;5.40;99.90;;;5.65;100.00;-20836.00;5067272;28;20431;-65
2021/01/30 02:55:11;;;;;;;0.60;0.60;;;5.30;99.90;;;5.50;100.00;-20831.84;5060916;28;20431;-66
2021/01/30 02:57:39;;;;;;;0.60;0.60;;;5.20;99.90;;;5.26;100.00;-20825.28;5054099;28;20464;-66
2021/01/30 03:00:13;;;;;;;0.60;0.50;;;5.00;99.90;;;5.20;100.00;-20823.75;5055457;28;20460;-66
2021/01/30 03:02:41;;;;;;;0.60;0.57;;;4.90;99.90;;;5.30;100.00;-20826.41;5054668;28;20425;-66
2021/01/30 03:05:11;;;;;;;0.70;0.60;;;4.80;99.90;;;5.09;100.00;-20820.84;5057181;28;20436;-65
2021/01/30 03:08:02;;;;;;;0.60;0.60;;;4.70;99.90;;;4.96;100.00;-20817.09;5060574;28;20461;-66
2021/01/30 03:10:36;;;;;;;0.60;0.60;;;4.60;99.90;;;4.82;100.00;-20813.47;5053777;28;20420;-66
2021/01/30 03:13:12;;;;;;;0.60;0.60;;;4.50;99.90;;;4.84;100.00;-20814.00;5065290;28;20430;-66
2021/01/30 03:15:45;;;;;;;0.60;0.60;;;4.40;99.90;;;4.83;100.00;-20813.75;5062655;28;20984;-65
2021/01/30 03:18:17;;;;;;;0.60;0.60;;;4.30;99.90;;;4.67;100.00;-20809.13;5055125;28;20467;-66
2021/01/30 03:20:46;;;;;;;0.70;0.70;;;4.10;99.90;;;4.51;100.00;-20804.97;5065732;28;20527;-66
2021/01/30 03:23:18;;;;;;;0.60;0.50;;;4.00;99.90;;;4.52;100.00;-20805.25;5074036;28;20473;-66
2021/01/30 03:25:46;;;;;;;0.60;0.60;;;3.90;99.90;;;4.36;100.00;-20800.78;5078810;28;20466;-66
2021/01/30 03:28:15;;;;;;;0.60;0.57;;;3.90;99.90;;;4.38;100.00;-20801.19;5053970;28;20432;-66
2021/01/30 03:30:42;;;;;;;0.60;0.50;;;3.80;99.90;;;4.34;100.00;-20800.38;5055316;28;20432;-66
2021/01/30 03:33:11;;;;;;;0.70;0.60;;;3.80;99.90;;;4.35;100.00;-20800.66;5054021;28;20559;-66
2021/01/30 03:35:38;;;;;;;1.37;1.27;;;3.80;99.90;;;4.24;100.00;-20797.44;5056584;28;20523;-64
2021/01/30 03:38:06;;;;;;;0.60;0.60;;;3.70;99.90;;;4.24;100.00;-20797.44;5064687;28;20459;-65
2021/01/30 03:40:34;;;;;;;0.60;0.50;;;3.70;99.90;;;4.29;100.00;-20798.97;5061020;28;20863;-66
2021/01/30 03:43:03;;;;;;;0.63;0.60;;;3.60;99.90;;;4.17;100.00;-20795.50;5067513;28;20540;-66
2021/01/30 03:45:31;;;;;;;0.60;0.60;;;3.70;99.90;;;4.03;100.00;-20791.88;5073232;28;20946;-65
2021/01/30 03:48:00;;;;;;;0.60;0.60;;;3.60;99.90;;;4.07;100.00;-20792.84;5073627;28;20171;-67
2021/01/30 03:50:28;;;;;;;0.60;0.60;;;3.60;99.90;;;4.11;100.00;-20793.97;5053974;28;20662;-65
2021/01/30 03:52:56;;;;;;;0.60;0.60;;;3.60;99.90;;;4.11;100.00;-20793.97;5053497;28;20432;-68
2021/01/30 03:55:23;;;;;;;0.60;0.50;;;3.60;99.90;;;4.06;100.00;-20792.56;5055213;28;20526;-65
2021/01/30 03:57:51;;;;;;;0.70;0.60;;;3.60;99.90;;;4.13;100.00;-20794.50;5053587;28;20464;-65
2021/01/30 04:00:23;;;;;;;0.70;0.60;;;3.60;99.90;;;4.11;100.00;-20793.97;5053623;28;20859;-64
2021/01/30 04:02:50;;;;;;;0.60;0.55;;;3.60;99.90;;;4.27;100.00;-20798.28;5052875;28;20261;-66
2021/01/30 04:05:20;;;;;;;0.67;0.60;;;3.50;99.90;;;4.08;100.00;-20793.25;5067711;28;20200;-65
2021/01/30 04:07:48;;;;;;;0.60;0.60;;;3.50;99.90;;;4.17;100.00;-20795.63;5054145;28;20771;-64
2021/01/30 04:10:19;;;;;;;0.60;0.50;;;3.40;99.90;;;4.04;100.00;-20792.16;5059982;28;20841;-65
2021/01/30 04:12:45;;;;;;;0.60;0.60;;;3.50;99.90;;;3.93;100.00;-20789.06;5056830;28;20641;-64
2021/01/30 04:15:16;;;;;;;0.60;0.50;;;3.40;99.90;;;4.02;100.00;-20791.44;5071482;28;20566;-65
2021/01/30 04:17:43;;;;;;;0.60;0.50;;;3.40;99.90;;;3.90;100.00;-20788.25;5067061;28;20214;-65
2021/01/30 04:20:11;;;;;;;0.60;0.50;;;3.40;99.90;;;3.85;100.00;-20787.00;5053434;28;20194;-64
2021/01/30 04:22:38;;;;;;;0.60;0.60;;;3.30;99.90;;;3.70;100.00;-20782.81;5053645;28;20221;-65
2021/01/30 04:25:07;;;;;;;0.60;0.52;;;3.10;99.90;;;3.80;100.00;-20785.59;5054187;28;20232;-65
2021/01/30 04:27:34;;;;;;;0.60;0.60;;;3.10;99.90;;;3.61;100.00;-20780.28;5052829;28;20213;-65
2021/01/30 04:30:02;;;;;;;0.60;0.50;;;3.00;99.90;;;3.41;100.00;-20774.72;5054180;28;20201;-65
2021/01/30 04:32:30;;;;;;;0.60;0.60;;;2.90;99.90;;;3.33;100.00;-20772.63;5072653;28;20274;-65
2021/01/30 04:34:58;;;;;;;0.60;0.60;;;2.80;99.90;;;3.27;100.00;-20771.09;5068389;28;20230;-65
2021/01/30 04:37:25;;;;;;;0.60;0.60;;;2.70;99.90;;;3.27;100.00;-20771.09;5059148;28;20225;-64
2021/01/30 04:39:51;;;;;;;3.17;1.25;;;2.70;99.90;;;3.14;100.00;-20767.47;5067863;28;20665;-65
2021/01/30 04:42:36;;;;;;;0.70;0.60;;;2.60;99.90;;;3.16;100.00;-20768.03;5053045;28;20226;-65
2021/01/30 04:45:13;;;;;;;0.60;0.60;;;2.50;99.90;;;3.24;100.00;-20770.25;5053457;28;20205;-65
2021/01/30 04:47:49;;;;;;;0.60;0.60;;;2.60;99.90;;;3.27;100.00;-20770.94;5051390;28;20642;-66
2021/01/30 04:50:30;;;;;;;0.70;0.60;;;2.50;99.90;;;3.05;100.00;-20765.09;5068473;28;20184;-65
2021/01/30 04:53:06;;;;;;;0.60;0.60;;;2.50;99.90;;;3.10;100.00;-20766.50;5054924;28;20185;-65
2021/01/30 04:55:52;;;;;;;0.60;0.50;;;2.50;99.90;;;3.04;100.00;-20764.69;5053700;28;20211;-65
2021/01/30 04:58:33;;;;;;;0.60;0.60;;;2.50;99.90;;;3.14;100.00;-20767.47;5052632;28;20685;-64
2021/01/30 05:01:17;;;;;;;0.60;0.50;;;2.50;99.90;;;3.03;100.00;-20764.53;5065859;28;20672;-64
2021/01/30 05:04:07;;;;;;;0.60;0.50;;;2.50;99.90;;;3.10;100.00;-20766.34;5076116;28;20173;-68
2021/01/30 05:06:51;;;;;;;0.60;0.60;;;2.50;99.90;;;3.12;100.00;-20766.91;5057320;28;20255;-65
2021/01/30 05:09:31;;;;;;;0.60;0.50;;;2.50;99.90;;;3.18;100.00;-20768.59;5056171;28;20221;-64
2021/01/30 05:12:13;;;;;;;0.60;0.60;;;2.50;99.90;;;3.13;100.00;-20767.31;5075084;28;20185;-65
2021/01/30 05:14:53;;;;;;;0.60;0.60;;;2.50;99.90;;;3.10;100.00;-20766.34;5071532;28;20255;-64
2021/01/30 05:17:25;;;;;;;0.60;0.57;;;2.50;99.90;;;3.03;100.00;-20764.41;5074594;28;20201;-65
2021/01/30 05:20:02;;;;;;;0.60;0.60;;;2.50;99.90;;;3.06;100.00;-20765.22;5062473;28;20174;-65
2021/01/30 05:22:37;;;;;;;0.60;0.50;;;2.40;99.90;;;3.18;100.00;-20768.44;5056844;28;20189;-65
2021/01/30 05:25:11;;;;;;;0.60;0.60;;;2.40;99.90;;;3.02;100.00;-20764.13;5069661;28;20215;-65
2021/01/30 05:27:52;;;;;;;0.60;0.60;;;2.40;99.90;;;3.00;100.00;-20763.56;5057151;28;20244;-64
2021/01/30 05:30:30;;;;;;;0.60;0.60;;;2.50;99.90;;;3.13;100.00;-20767.19;5062256;28;20700;-65
2021/01/30 05:33:25;;;;;;;0.60;0.60;;;2.50;99.90;;;3.07;100.00;-20765.66;5075995;28;20181;-64
2021/01/30 05:36:10;;;;;;;0.60;0.50;;;2.50;99.90;;;3.21;100.00;-20769.28;5058742;28;20251;-65
2021/01/30 05:38:57;;;;;;;0.60;0.50;;;2.50;99.90;;;3.25;100.00;-20770.53;5055814;28;20731;-65
2021/01/30 05:41:38;;;;;;;0.77;0.77;;;2.40;99.90;;;3.13;100.00;-20767.19;5071839;28;20188;-64
2021/01/30 05:44:12;;;;;;;0.60;0.50;;;2.50;99.90;;;3.06;100.00;-20765.22;5075767;28;20661;-64
2021/01/30 05:46:40;;;;;;;0.60;0.50;;;2.50;99.90;;;3.06;100.00;-20765.22;5072481;28;20181;-64
2021/01/30 05:49:13;;;;;;;0.60;0.57;;;2.50;99.90;;;3.07;100.00;-20765.50;5067086;28;20224;-65
2021/01/30 05:51:47;;;;;;;0.60;0.50;;;2.50;99.90;;;2.98;100.00;-20763.00;5055997;28;20189;-64
2021/01/30 05:54:14;;;;;;;0.60;0.50;;;2.50;99.90;;;2.95;100.00;-20762.16;5054983;28;20626;-64
2021/01/30 05:56:44;;;;;;;0.60;0.50;;;2.40;99.90;;;3.00;100.00;-20763.56;5055641;28;20203;-64
2021/01/30 05:59:25;;;;;;;0.60;0.60;;;2.40;99.90;;;3.01;100.00;-20763.84;5065004;28;20305;-64
2021/01/30 06:02:11;;;;;;;0.60;0.60;;;2.40;99.90;;;2.96;100.00;-20762.44;5065725;28;20198;-64
2021/01/30 06:04:38;;;;;;;0.60;0.50;;;2.40;99.90;;;2.94;100.00;-20762.03;5058121;28;20302;-64
2021/01/30 06:07:17;;;;;;;0.60;0.60;;;2.40;99.90;;;2.88;100.00;-20760.34;5072473;28;20189;-65
2021/01/30 06:09:45;;;;;;;0.60;0.60;;;2.40;99.90;;;2.92;100.00;-20761.31;5073536;28;20259;-64
2021/01/30 06:12:22;;;;;;;0.60;0.60;;;2.40;99.90;;;2.86;100.00;-20759.94;5074041;28;20185;-65
2021/01/30 06:14:50;;;;;;;0.60;0.60;;;2.30;99.90;;;2.92;100.00;-20761.31;5074488;28;20286;-65
2021/01/30 06:17:31;;;;;;;0.60;0.60;;;2.30;99.90;;;2.77;100.00;-20757.41;5071654;28;20596;-64
2021/01/30 06:20:09;;;;;;;0.60;0.60;;;2.30;99.90;;;2.74;100.00;-20756.44;5058746;28;20195;-64
2021/01/30 06:22:38;;;;;;;0.60;0.50;;;2.20;99.90;;;2.81;100.00;-20758.41;5073228;28;20256;-63
2021/01/30 06:25:22;;;;;;;1.08;1.08;;;2.20;99.90;;;2.77;100.00;-20757.28;5056086;28;20550;-65
2021/01/30 06:27:52;;;;;;;0.60;0.60;;;2.20;99.90;;;2.70;100.00;-20755.47;5054672;28;20580;-64
2021/01/30 06:30:38;;;;;;;0.60;0.60;;;2.20;99.90;;;2.73;100.00;-20756.31;5061700;28;20299;-64
2021/01/30 06:33:24;;;;;;;0.60;0.60;;;2.20;99.90;;;2.80;100.00;-20758.25;5055921;28;20174;-64
2021/01/30 06:35:57;;;;;;;0.60;0.52;;;2.30;99.90;;;2.84;100.00;-20759.38;5054718;28;20351;-65
2021/01/30 06:38:32;;;;;;;0.60;0.60;;;2.30;99.90;;;2.78;100.00;-20757.56;5053921;28;20190;-65
2021/01/30 06:41:04;;;;;;;0.60;0.50;;;2.30;99.90;;;2.77;100.00;-20757.41;5066181;28;20199;-66
2021/01/30 06:43:35;;;;;;;0.60;0.50;;;2.40;99.90;;;2.75;100.00;-20756.84;5063528;28;20618;-64
2021/01/30 06:46:08;;;;;;;0.70;0.60;;;2.30;99.90;;;2.79;100.00;-20757.84;5058105;28;20220;-65
2021/01/30 06:48:41;;;;;;;0.60;0.50;;;2.40;99.90;;;2.77;100.00;-20757.28;5055323;28;20178;-64
2021/01/30 06:51:36;;;;;;;0.60;0.60;;;2.40;99.90;;;2.74;100.00;-20756.59;5061217;28;20231;-65
2021/01/30 06:54:22;;;;;;;0.60;0.50;;;2.30;99.90;;;2.73;100.00;-20756.16;5027405;28;20297;-66
2021/01/30 06:57:05;;;;;;;0.70;0.65;;;2.20;99.90;;;2.65;100.00;-20754.22;5053534;28;20217;-65
2021/01/30 06:59:37;;;;;;;0.60;0.60;;;2.30;99.90;;;2.58;100.00;-20752.25;5061558;28;20723;-65
2021/01/30 07:02:14;;;;;;;0.65;0.60;;;2.30;99.90;;;2.62;100.00;-20753.22;5059365;28;20547;-64
2021/01/30 07:05:05;;;;;;;0.70;0.60;;;2.20;99.90;;;2.54;100.00;-20751.00;5061991;28;20264;-65
2021/01/30 07:07:38;;;;;;;0.60;0.60;;;2.20;99.90;;;2.57;100.00;-20751.84;5054475;28;20178;-65
2021/01/30 07:10:27;;;;;;;0.60;0.60;;;2.20;99.90;;;2.56;100.00;-20751.69;5061183;28;20232;-64
2021/01/30 07:13:24;;;;;;;0.60;0.60;;;2.10;99.90;;;2.55;100.00;-20751.28;5059785;28;20556;-64
2021/01/30 07:16:07;;;;;;;0.60;0.60;;;2.20;99.90;;;2.53;100.00;-20750.72;5059092;28;20250;-64
2021/01/30 07:18:50;;;;;;;0.60;0.60;;;2.10;99.90;;;2.49;100.00;-20749.59;5060454;28;20213;-65
2021/01/30 07:21:24;;;;;;;0.70;0.60;;;2.10;99.90;;;2.47;100.00;-20749.03;5061399;28;20624;-65
2021/01/30 07:24:14;;;;;;;4.20;1.55;;;2.10;99.90;;;2.52;100.00;-20750.56;5064742;28;20237;-65
2021/01/30 07:26:49;;;;;;;0.70;0.60;;;2.10;99.90;;;2.36;100.00;-20746.25;5060076;28;20601;-65
2021/01/30 07:29:43;;;;;;;0.60;0.60;;;2.10;99.90;;;2.38;100.00;-20746.81;5059484;28;20213;-65
2021/01/30 07:32:20;;;;;;;0.60;0.60;;;2.00;99.90;;;2.33;100.00;-20745.41;5060918;28;20676;-66
2021/01/30 07:35:17;;;;;;;0.60;0.60;;;2.10;99.90;;;2.38;100.00;-20746.81;5063190;28;20190;-65
2021/01/30 07:37:55;;;;;;;0.60;0.60;;;2.10;99.90;;;2.38;100.00;-20746.81;5063724;28;20193;-65
2021/01/30 07:40:38;;;;;;;0.60;0.50;;;2.10;99.90;;;2.40;100.00;-20747.38;5063308;28;20522;-64
2021/01/30 07:43:12;;;;;;;1.00;1.00;;;2.00;99.90;;;2.36;100.00;-20746.13;5062669;28;20650;-65
2021/01/30 07:45:45;;;;;;;0.60;0.60;;;2.00;99.90;;;2.38;100.00;-20746.66;5062983;28;20205;-65
2021/01/30 07:48:20;;;;;;;0.60;0.60;;;2.10;99.90;;;2.33;100.00;-20745.41;5063052;28;20181;-66
2021/01/30 07:50:53;;;;;;;0.60;0.60;;;2.00;99.90;;;2.28;100.00;-20744.00;5062400;28;20238;-65
2021/01/30 07:53:22;;;;;;;0.60;0.60;;;2.00;99.90;;;2.32;100.00;-20745.13;5063715;28;20186;-65
2021/01/30 07:56:10;;;;;;;0.60;0.60;;;2.00;99.90;;;2.27;100.00;-20743.59;5061929;28;20266;-65
2021/01/30 07:58:52;;;;;;;0.60;0.60;;;1.90;99.90;;;2.31;100.00;-20744.72;5062889;28;20288;-65
2021/01/30 08:01:47;;;;;;;0.60;0.60;;;1.90;99.90;;;2.27;100.00;-20743.72;5061257;28;20223;-65
2021/01/30 08:05:06;;;;;;;0.60;0.60;;;1.90;99.90;;;2.30;100.00;-20744.44;5062499;28;20181;-65
2021/01/30 08:07:45;;;;;;;0.60;0.60;;;1.90;99.90;;;2.26;100.00;-20743.31;5031705;28;20249;-67
2021/01/30 08:10:24;;;;;;;0.60;0.60;;;1.90;99.90;;;2.32;100.00;-20745.00;5061726;28;20186;-67
2021/01/30 08:13:08;;;;;;;0.60;0.60;;;2.00;99.90;;;2.27;100.00;-20743.59;5061954;28;20176;-65
2021/01/30 08:15:44;;;;;;;0.60;0.50;;;1.90;99.90;;;2.22;100.00;-20742.34;5064701;28;20193;-67
2021/01/30 08:18:25;;;;;;;0.60;0.60;;;1.90;99.90;;;2.24;100.00;-20742.91;5059829;28;20742;-66
2021/01/30 08:20:58;;;;;;;0.60;0.60;;;1.90;99.90;;;2.33;100.00;-20745.28;5063323;28;20193;-65
2021/01/30 08:23:49;;;;;;;0.60;0.60;;;2.00;99.90;;;2.47;100.00;-20749.03;5053983;28;20174;-65
2021/01/30 08:26:23;;;;;;;0.65;0.60;;;2.00;99.90;;;2.39;100.00;-20747.09;5064691;28;20603;-65
2021/01/30 08:29:07;;;;;;;0.60;0.60;;;2.00;99.90;;;2.44;100.00;-20748.34;5068986;28;20582;-65
2021/01/30 08:31:39;;;;;;;0.60;0.50;;;2.10;99.90;;;2.48;100.00;-20749.31;5069494;28;20604;-65
2021/01/30 08:34:24;;;;;;;0.60;0.50;;;2.10;99.90;;;2.52;100.00;-20750.56;5067163;28;20197;-65
2021/01/30 08:36:53;;;;;;;0.60;0.60;;;2.10;99.90;;;2.47;100.00;-20749.03;5061943;28;20243;-65
2021/01/30 08:39:25;;;;;;;0.60;0.60;;;2.10;99.90;;;2.54;100.00;-20751.00;5066041;28;20193;-65
2021/01/30 08:41:58;;;;;;;0.70;0.60;;;2.10;99.90;;;2.55;100.00;-20751.28;5065002;28;20621;-65
2021/01/30 08:44:51;;;;;;;1.02;1.02;;;2.10;99.90;;;2.62;100.00;-20753.22;5065664;28;20204;-66
2021/01/30 08:47:24;;;;;;;0.60;0.60;;;2.20;99.90;;;2.64;100.00;-20753.78;5072493;28;20200;-66
2021/01/30 08:50:10;;;;;;;0.60;0.60;;;2.20;99.90;;;2.79;100.00;-20757.97;5068592;28;20181;-65
2021/01/30 08:52:50;;;;;;;0.60;0.60;;;2.30;99.90;;;2.65;100.00;-20754.06;5066293;28;20691;-65
2021/01/30 08:55:53;;;;;;;0.60;0.60;;;2.30;99.90;;;2.74;100.00;-20756.59;5074916;28;20190;-65
2021/01/30 08:58:49;;;;;;;1.65;1.55;;;2.30;99.90;;;2.65;100.00;-20754.22;5054842;28;20212;-65
2021/01/30 09:01:46;;;;;;;0.60;0.50;;;2.30;99.90;;;2.60;100.00;-20752.81;5057948;28;20603;-67
2021/01/30 09:04:47;;;;;;;0.60;0.52;;;2.20;99.90;;;2.65;100.00;-20754.06;5063808;28;20216;-65
2021/01/30 09:07:37;;;;;;;0.60;0.60;;;2.20;99.90;;;2.54;100.00;-20751.13;5073871;28;20683;-65
2021/01/30 09:10:33;;;;;;;0.60;0.60;;;2.20;99.90;;;2.58;100.00;-20752.13;5069764;28;20216;-65
2021/01/30 09:13:13;;;;;;;0.70;0.63;;;2.20;99.90;;;2.57;100.00;-20751.84;5069818;28;20181;-65
2021/01/30 09:16:03;;;;;;;0.90;0.90;;;2.20;99.90;;;2.58;100.00;-20752.13;5071309;28;20193;-65
2021/01/30 09:18:56;;;;;;;0.60;0.50;;;2.20;99.90;;;2.49;100.00;-20749.75;5057220;28;20213;-66
2021/01/30 09:21:54;;;;;;;0.60;0.60;;;2.20;99.90;;;2.62;100.00;-20753.22;5062523;28;20201;-65
2021/01/30 09:25:09;;;;;;;0.60;0.60;;;2.20;99.90;;;2.71;100.00;-20755.75;5068659;28;20254;-65
2021/01/30 09:27:47;;;;;;;0.60;0.50;;;2.30;99.90;;;2.73;100.00;-20756.31;5067013;28;20193;-66
2021/01/30 09:30:36;;;;;;;0.95;0.95;;;2.20;99.90;;;2.78;100.00;-20757.69;5057405;28;20577;-66
2021/01/30 09:33:13;;;;;;;0.60;0.60;;;2.30;99.90;;;2.71;100.00;-20755.75;5065618;28;20296;-68
2021/01/30 09:35:43;;;;;;;0.60;0.60;;;2.30;99.90;;;2.84;100.00;-20759.38;5066802;28;20242;-66
2021/01/30 09:38:25;;;;;;;0.70;0.60;;;2.40;99.90;;;2.83;100.00;-20759.09;5058894;28;20659;-67
2021/01/30 09:41:21;;;;;;;0.60;0.50;;;2.40;99.90;;;3.02;100.00;-20764.25;5058064;28;20216;-66
2021/01/30 09:43:49;;;;;;;0.60;0.60;;;2.40;99.90;;;2.99;100.00;-20763.28;5064215;28;20576;-65
2021/01/30 09:46:22;;;;;;;0.70;0.60;;;2.60;99.90;;;3.05;100.00;-20765.09;5068299;28;20254;-65
2021/01/30 09:48:50;;;;;;;0.60;0.60;;;2.60;99.90;;;3.07;100.00;-20765.50;5069627;28;20730;-65
2021/01/30 09:51:18;;;;;;;0.60;0.60;;;2.60;99.90;;;2.96;100.00;-20762.59;5069705;28;20196;-65
2021/01/30 09:53:54;;;;;;;0.80;0.80;;;2.60;99.90;;;3.00;100.00;-20763.56;5073944;28;20536;-65
2021/01/30 09:56:23;;;;;;;1.10;1.00;;;2.60;99.90;;;3.04;100.00;-20764.69;5061725;28;20270;-65
2021/01/30 09:58:55;;;;;;;1.23;1.13;;;2.60;99.90;;;3.20;100.00;-20769.13;5072364;28;20222;-65
2021/01/30 10:01:29;;;;;;;0.60;0.60;;;2.60;99.90;;;3.38;100.00;-20774.16;5056802;28;20185;-69
2021/01/30 10:03:57;;;;;;;0.60;0.57;;;2.70;99.90;;;3.28;100.00;-20771.38;5065842;28;20200;-64
2021/01/30 10:06:31;;;;;;;0.60;0.60;;;2.80;99.90;;;3.15;100.00;-20767.75;5063682;28;20443;-66
2021/01/30 10:09:13;;;;;;;0.70;0.60;;;2.80;99.90;;;3.28;100.00;-20771.22;5057633;28;20239;-65
2021/01/30 10:11:43;;;;;;;0.60;0.60;;;2.80;99.90;;;3.48;100.00;-20776.81;5073089;28;20247;-65
2021/01/30 10:14:15;;;;;;;0.60;0.60;;;2.90;99.90;;;3.48;100.00;-20776.66;5070699;28;20470;-65
2021/01/30 10:16:54;;;;;;;0.63;0.57;;;2.90;99.90;;;3.46;100.00;-20776.09;5054747;28;20538;-67
2021/01/30 10:19:25;;;;;;;0.70;0.70;;;3.00;99.90;;;3.60;100.00;-20780.00;5062504;28;20219;-67
2021/01/30 10:21:53;;;;;;;0.60;0.60;;;3.00;99.90;;;3.45;100.00;-20775.84;5066215;28;20500;-68
2021/01/30 10:24:25;;;;;;;0.70;0.70;;;3.00;99.90;;;3.39;100.00;-20774.44;5061769;28;20494;-65
2021/01/30 10:27:08;;;;;;;0.60;0.50;;;2.90;99.90;;;3.50;100.00;-20777.22;5066414;28;20438;-66
2021/01/30 10:29:35;;;;;;;1.13;1.03;;;3.00;99.90;;;3.64;100.00;-20781.13;5069600;28;20460;-65
2021/01/30 10:32:10;;;;;;;0.60;0.50;;;3.00;99.90;;;3.54;100.00;-20778.34;5053149;28;20844;-65
2021/01/30 10:34:43;;;;;;;0.70;0.60;;;3.10;99.90;;;3.66;100.00;-20781.69;5060434;28;20184;-66
2021/01/30 10:37:16;;;;;;;0.70;0.60;;;3.20;99.90;;;3.69;100.00;-20782.38;5067835;28;20535;-65
2021/01/30 10:39:52;;;;;;;0.80;0.70;;;3.10;99.90;;;3.73;100.00;-20783.66;5054270;28;20286;-65
2021/01/30 10:42:23;;;;;;;0.60;0.50;;;3.20;99.90;;;4.00;100.00;-20790.88;5055395;28;20455;-66
2021/01/30 10:44:57;;;;;;;0.60;0.50;;;3.30;99.90;;;4.00;100.00;-20791.03;5054410;28;20444;-66
2021/01/30 10:47:26;;;;;;;1.00;1.00;;;3.40;99.90;;;3.98;100.00;-20790.34;5068067;28;20212;-66
2021/01/30 10:50:06;;;;;;;2.93;2.80;;;3.40;99.90;;;3.77;100.00;-20784.75;5065828;28;20431;-65
2021/01/30 10:52:33;;;;;;;1.03;0.93;;;3.40;99.90;;;3.84;100.00;-20786.72;5054695;28;20511;-65
2021/01/30 10:55:29;;;;;;;0.80;0.80;;;3.30;99.90;;;3.88;100.00;-20787.81;5054084;28;20466;-65
2021/01/30 10:58:13;;;;;;;0.63;0.60;;;3.30;99.90;;;3.95;100.00;-20789.50;5054192;28;21031;-65